createdAt,value
2019-02-24T00:01:04.727Z,42.65
2019-02-24T00:03:38.656Z,43.60
2019-02-24T00:06:12.733Z,44.05
2019-02-24T00:08:47.038Z,44.15
2019-02-24T00:11:21.305Z,44.45
2019-02-24T00:13:55.615Z,44.93
2019-02-24T00:16:30.001Z,44.00
2019-02-24T00:19:04.138Z,43.55
2019-02-24T00:21:38.644Z,44.10
2019-02-24T00:24:12.766Z,44.08
2019-02-24T00:26:47.154Z,44.35
2019-02-24T00:29:21.420Z,44.60
2019-02-24T00:31:55.853Z,44.50
2019-02-24T00:34:30.074Z,44.18
2019-02-24T00:37:04.223Z,43.40
2019-02-24T00:39:38.338Z,45.12
2019-02-24T00:42:12.629Z,46.02
2019-02-24T00:44:46.717Z,45.10
2019-02-24T00:47:21.262Z,44.20
2019-02-24T00:49:55.319Z,45.75
2019-02-24T00:52:29.806Z,44.90
2019-02-24T00:55:03.809Z,45.00
2019-02-24T00:57:38.107Z,46.25
2019-02-24T01:00:13.035Z,44.03
2019-02-24T01:02:47.828Z,45.08
2019-02-24T01:05:22.258Z,45.58
2019-02-24T01:07:56.284Z,46.18
2019-02-24T01:10:31.343Z,44.70
2019-02-24T01:13:05.725Z,45.28
2019-02-24T01:15:39.936Z,46.53
2019-02-24T01:18:13.930Z,46.10
2019-02-24T01:20:48.210Z,46.23
2019-02-24T01:23:22.733Z,46.10
2019-02-24T01:25:56.817Z,46.73
2019-02-24T01:28:31.252Z,45.75
2019-02-24T01:31:06.665Z,46.10
2019-02-24T01:33:41.093Z,46.63
2019-02-24T01:36:15.268Z,48.42
2019-02-24T01:38:50.314Z,47.27
2019-02-24T01:41:24.751Z,47.75
2019-02-24T01:43:59.168Z,45.88
2019-02-24T01:46:33.337Z,46.63
2019-02-24T01:49:07.535Z,47.35
2019-02-24T01:51:41.992Z,48.20
2019-02-24T01:54:17.138Z,47.85
2019-02-24T01:56:51.399Z,47.45
2019-02-24T01:59:25.665Z,47.93
2019-02-24T02:01:59.973Z,46.95
2019-02-24T02:04:34.073Z,49.55
2019-02-24T02:07:08.153Z,48.00
2019-02-24T02:09:42.334Z,50.03
2019-02-24T02:12:18.887Z,47.70
2019-02-24T02:14:52.793Z,48.55
2019-02-24T02:17:27.161Z,48.75
2019-02-24T02:20:02.503Z,48.48
2019-02-24T02:22:36.533Z,49.18
2019-02-24T02:25:11.817Z,50.35
2019-02-24T02:27:46.112Z,50.35
2019-02-24T02:30:20.157Z,50.17
2019-02-24T02:32:54.347Z,49.08
2019-02-24T02:35:28.566Z,49.70
2019-02-24T02:38:02.884Z,49.70
2019-02-24T02:40:37.148Z,51.65
2019-02-24T02:43:11.923Z,51.77
2019-02-24T02:45:46.253Z,53.78
2019-02-24T02:48:20.412Z,51.90
2019-02-24T02:50:54.617Z,52.20
2019-02-24T02:53:28.733Z,52.27
2019-02-24T02:56:03.736Z,53.02
2019-02-24T02:58:37.859Z,52.55
2019-02-24T03:01:12.257Z,52.80
2019-02-24T03:03:46.388Z,52.40
2019-02-24T03:06:38.852Z,54.13
2019-02-24T03:09:13.505Z,52.05
2019-02-24T03:11:47.430Z,53.48
2019-02-24T03:14:21.472Z,52.95
2019-02-24T03:16:55.629Z,52.38
2019-02-24T03:19:30.046Z,53.83
2019-02-24T03:22:04.368Z,52.25
2019-02-24T03:24:38.521Z,53.40
2019-02-24T03:27:12.671Z,53.68
2019-02-24T03:29:46.812Z,53.70
2019-02-24T03:32:20.941Z,55.45
2019-02-24T03:34:55.164Z,55.17
2019-02-24T03:37:29.766Z,54.58
2019-02-24T03:40:04.006Z,55.78
2019-02-24T03:42:38.112Z,54.63
2019-02-24T03:45:12.310Z,56.65
2019-02-24T03:47:46.668Z,54.88
2019-02-24T03:50:20.923Z,57.23
2019-02-24T03:52:55.100Z,54.70
2019-02-24T03:55:29.462Z,54.27
2019-02-24T03:58:03.528Z,56.10
2019-02-24T04:00:37.603Z,54.42
2019-02-24T04:03:12.076Z,54.58
2019-02-24T04:05:46.361Z,55.40
2019-02-24T04:08:20.766Z,53.98
2019-02-24T04:10:55.045Z,54.38
2019-02-24T04:13:29.198Z,54.65
2019-02-24T04:16:03.250Z,55.25
2019-02-24T04:18:37.604Z,55.23
2019-02-24T04:21:11.862Z,53.35
2019-02-24T04:23:46.142Z,55.12
2019-02-24T04:26:21.322Z,55.45
2019-02-24T04:28:55.525Z,56.02
2019-02-24T04:31:30.054Z,53.40
2019-02-24T04:34:04.552Z,55.35
2019-02-24T04:36:38.513Z,56.30
2019-02-24T04:39:12.826Z,54.85
2019-02-24T04:41:47.467Z,53.68
2019-02-24T04:44:21.373Z,54.50
2019-02-24T04:46:55.433Z,52.95
2019-02-24T04:49:29.667Z,55.60
2019-02-24T04:52:03.871Z,55.08
2019-02-24T04:54:38.022Z,54.03
2019-02-24T04:57:12.395Z,54.95
2019-02-24T04:59:46.452Z,56.37
2019-02-24T05:02:20.564Z,56.23
2019-02-24T05:04:54.780Z,56.53
2019-02-24T05:07:29.122Z,56.02
2019-02-24T05:10:03.396Z,54.50
2019-02-24T05:12:37.830Z,54.60
2019-02-24T05:15:11.877Z,54.38
2019-02-24T05:17:46.130Z,60.63
2019-02-24T05:20:20.269Z,56.50
2019-02-24T05:22:54.939Z,54.48
2019-02-24T05:25:30.110Z,54.13
2019-02-24T05:28:04.378Z,54.35
2019-02-24T05:30:38.503Z,55.92
2019-02-24T05:33:12.523Z,54.53
2019-02-24T05:35:47.033Z,57.45
2019-02-24T05:38:21.356Z,54.00
2019-02-24T05:40:55.778Z,54.45
2019-02-24T05:43:31.066Z,56.50
2019-02-24T05:46:05.330Z,54.27
2019-02-24T05:48:39.486Z,54.27
2019-02-24T05:51:13.580Z,52.50
2019-02-24T05:53:47.446Z,56.42
2019-02-24T05:56:22.024Z,53.50
2019-02-24T05:58:56.230Z,52.70
2019-02-24T06:01:30.652Z,52.27
2019-02-24T06:04:04.768Z,52.55
2019-02-24T06:06:39.308Z,51.45
2019-02-24T06:09:13.479Z,51.50
2019-02-24T06:11:47.698Z,50.28
2019-02-24T06:14:21.903Z,50.83
2019-02-24T06:16:56.067Z,51.73
2019-02-24T06:19:30.321Z,50.85
2019-02-24T06:22:04.441Z,49.65
2019-02-24T06:24:38.479Z,49.80
2019-02-24T06:27:12.675Z,49.67
2019-02-24T06:29:47.018Z,49.25
2019-02-24T06:32:21.320Z,50.58
2019-02-24T06:34:55.674Z,47.88
2019-02-24T06:37:30.131Z,49.77
2019-02-24T06:40:04.554Z,48.10
2019-02-24T06:42:39.066Z,47.85
2019-02-24T06:45:13.508Z,47.73
2019-02-24T06:47:48.245Z,46.35
2019-02-24T06:50:23.305Z,47.08
2019-02-24T06:52:57.364Z,46.80
2019-02-24T06:55:31.800Z,46.58
2019-02-24T06:58:07.784Z,47.58
2019-02-24T07:00:42.114Z,46.45
2019-02-24T07:03:17.647Z,46.13
2019-02-24T07:05:52.569Z,44.03
2019-02-24T07:08:28.122Z,44.48
2019-02-24T07:11:02.244Z,44.25
2019-02-24T07:13:36.685Z,44.85
2019-02-24T07:16:10.880Z,43.25
2019-02-24T07:18:45.225Z,43.83
2019-02-24T07:21:19.274Z,43.55
2019-02-24T07:23:53.403Z,42.85
2019-02-24T07:26:27.683Z,43.85
2019-02-24T07:29:01.969Z,42.17
2019-02-24T07:31:36.009Z,42.03
2019-02-24T07:34:10.037Z,42.85
2019-02-24T07:36:44.354Z,41.85
2019-02-24T07:39:18.489Z,41.37
2019-02-24T07:41:52.510Z,40.60
2019-02-24T07:44:26.492Z,40.58
2019-02-24T07:47:00.747Z,41.45
2019-02-24T07:49:35.088Z,41.68
2019-02-24T07:52:09.340Z,41.20
2019-02-24T07:54:43.676Z,40.58
2019-02-24T07:57:17.949Z,40.60
2019-02-24T07:59:52.228Z,40.20
2019-02-24T08:02:26.348Z,40.88
2019-02-24T08:05:00.568Z,40.30
2019-02-24T08:07:34.680Z,42.35
2019-02-24T08:10:09.353Z,40.08
2019-02-24T08:12:43.521Z,40.00
2019-02-24T08:15:17.674Z,40.15
2019-02-24T08:17:51.827Z,39.70
2019-02-24T08:20:25.926Z,39.13
2019-02-24T08:23:00.134Z,39.08
2019-02-24T08:25:34.473Z,39.08
2019-02-24T08:28:08.445Z,39.40
2019-02-24T08:30:44.165Z,39.85
2019-02-24T08:33:18.339Z,39.53
2019-02-24T08:35:52.681Z,39.30
2019-02-24T08:38:26.732Z,38.38
2019-02-24T08:41:00.801Z,38.85
2019-02-24T08:43:35.769Z,39.05
2019-02-24T08:46:09.856Z,38.88
2019-02-24T08:48:44.064Z,39.08
2019-02-24T08:51:18.022Z,38.85
2019-02-24T08:53:52.237Z,38.23
2019-02-24T08:56:26.734Z,39.30
2019-02-24T08:59:01.905Z,37.75
2019-02-24T09:01:36.284Z,37.60
2019-02-24T09:04:11.107Z,38.80
2019-02-24T09:06:45.405Z,39.42
2019-02-24T09:09:19.570Z,38.70
2019-02-24T09:11:53.613Z,38.28
2019-02-24T09:14:27.587Z,37.58
2019-02-24T09:17:01.905Z,37.53
2019-02-24T09:19:37.115Z,37.48
2019-02-24T09:22:12.488Z,38.05
2019-02-24T09:24:46.799Z,37.80
2019-02-24T09:27:20.994Z,36.88
2019-02-24T09:29:55.083Z,38.58
2019-02-24T09:32:29.762Z,36.85
2019-02-24T09:35:07.214Z,37.55
2019-02-24T09:37:41.461Z,37.23
2019-02-24T09:40:15.758Z,36.08
2019-02-24T09:42:49.950Z,37.95
2019-02-24T09:45:24.057Z,36.28
2019-02-24T09:47:58.149Z,36.38
2019-02-24T09:50:32.370Z,36.80
2019-02-24T09:53:09.484Z,37.00
2019-02-24T09:55:43.604Z,36.17
2019-02-24T09:58:17.717Z,35.75
2019-02-24T10:00:52.027Z,37.95
2019-02-24T10:03:27.212Z,37.13
2019-02-24T10:06:01.245Z,36.65
2019-02-24T10:08:35.494Z,36.23
2019-02-24T10:11:10.291Z,36.03
2019-02-24T10:13:44.754Z,35.98
2019-02-24T10:16:19.253Z,36.48
2019-02-24T10:18:53.242Z,36.33
2019-02-24T10:21:27.787Z,36.80
2019-02-24T10:24:01.828Z,36.23
2019-02-24T10:26:36.397Z,34.83
2019-02-24T10:29:10.675Z,36.60
2019-02-24T10:31:44.927Z,35.80
2019-02-24T10:34:20.158Z,35.55
2019-02-24T10:36:54.287Z,35.40
2019-02-24T10:39:29.988Z,35.20
2019-02-24T10:42:04.341Z,35.65
2019-02-24T10:44:38.600Z,36.70
2019-02-24T10:47:12.813Z,35.90
2019-02-24T10:49:48.126Z,34.55
2019-02-24T10:52:22.341Z,36.20
2019-02-24T10:54:56.525Z,36.60
2019-02-24T10:57:30.929Z,36.20
2019-02-24T11:00:05.149Z,34.38
2019-02-24T11:02:39.687Z,35.15
2019-02-24T11:05:14.328Z,35.43
2019-02-24T11:07:48.557Z,34.85
2019-02-24T11:10:22.996Z,34.38
2019-02-24T11:12:58.301Z,35.70
2019-02-24T11:15:32.494Z,34.78
2019-02-24T11:18:07.004Z,34.65
2019-02-24T11:20:41.511Z,34.50
2019-02-24T11:23:15.718Z,34.25
2019-02-24T11:25:50.144Z,34.83
2019-02-24T11:28:24.400Z,34.03
2019-02-24T11:30:59.605Z,35.03
2019-02-24T11:33:33.965Z,34.65
2019-02-24T11:36:07.991Z,33.78
2019-02-24T11:38:43.335Z,33.75
2019-02-24T11:41:17.632Z,33.78
2019-02-24T11:43:52.224Z,32.93
2019-02-24T11:46:26.547Z,33.65
2019-02-24T11:49:00.718Z,34.58
2019-02-24T11:51:34.719Z,34.00
2019-02-24T11:54:09.099Z,34.15
2019-02-24T11:56:43.177Z,32.20
2019-02-24T11:59:17.436Z,33.00
2019-02-24T12:01:53.489Z,32.80
2019-02-24T12:04:27.984Z,33.80
2019-02-24T12:07:01.770Z,32.53
2019-02-24T12:09:36.184Z,33.65
2019-02-24T12:12:10.321Z,32.38
2019-02-24T12:14:45.034Z,32.08
2019-02-24T12:17:19.274Z,31.73
2019-02-24T12:19:53.783Z,32.85
2019-02-24T12:22:34.650Z,33.10
2019-02-24T12:25:12.218Z,33.38
2019-02-24T12:27:46.511Z,32.75
2019-02-24T12:30:24.170Z,32.65
2019-02-24T12:33:00.637Z,32.93
2019-02-24T12:35:34.838Z,32.78
2019-02-24T12:38:09.217Z,31.57
2019-02-24T12:40:44.336Z,32.45
2019-02-24T12:43:19.789Z,32.28
2019-02-24T12:45:56.062Z,32.28
2019-02-24T12:48:30.364Z,31.90
2019-02-24T12:51:04.757Z,32.10
2019-02-24T12:53:38.819Z,32.10
2019-02-24T12:56:14.846Z,31.85
2019-02-24T12:58:48.907Z,31.95
2019-02-24T13:01:23.359Z,32.48
2019-02-24T13:03:57.803Z,32.35
2019-02-24T13:06:32.371Z,31.48
2019-02-24T13:09:10.799Z,31.02
2019-02-24T13:11:46.094Z,31.62
2019-02-24T13:14:20.352Z,31.65
2019-02-24T13:16:54.543Z,31.30
2019-02-24T13:19:28.791Z,30.52
2019-02-24T13:22:02.994Z,31.35
2019-02-24T13:24:37.110Z,30.80
2019-02-24T13:27:11.109Z,30.50
2019-02-24T13:29:45.454Z,30.90
2019-02-24T13:32:19.769Z,32.00
2019-02-24T13:34:53.971Z,30.80
2019-02-24T13:37:27.947Z,30.62
2019-02-24T13:40:02.185Z,30.50
2019-02-24T13:42:37.714Z,31.62
2019-02-24T13:45:14.058Z,30.45
2019-02-24T13:47:48.124Z,30.45
2019-02-24T13:50:23.136Z,31.17
2019-02-24T13:52:57.349Z,30.48
2019-02-24T13:55:31.608Z,30.32
2019-02-24T13:58:05.488Z,30.60
2019-02-24T14:00:40.736Z,30.92
2019-02-24T14:03:14.951Z,30.32
2019-02-24T14:05:49.320Z,30.45
2019-02-24T14:08:23.521Z,30.17
2019-02-24T14:10:57.497Z,31.17
2019-02-24T14:13:32.138Z,30.25
2019-02-24T14:16:06.320Z,29.90
2019-02-24T14:18:40.313Z,30.70
2019-02-24T14:21:14.377Z,30.48
2019-02-24T14:23:48.531Z,30.30
2019-02-24T14:26:23.672Z,30.90
2019-02-24T14:28:57.597Z,30.92
2019-02-24T14:31:31.756Z,30.40
2019-02-24T14:34:06.160Z,30.68
2019-02-24T14:36:40.409Z,30.80
2019-02-24T14:39:14.715Z,30.40
2019-02-24T14:41:48.726Z,31.75
2019-02-24T14:44:23.512Z,31.35
2019-02-24T14:46:57.747Z,32.10
2019-02-24T14:49:32.060Z,32.10
2019-02-24T14:52:07.239Z,31.12
2019-02-24T14:54:41.537Z,31.17
2019-02-24T14:57:16.691Z,32.65
2019-02-24T14:59:51.827Z,32.48
2019-02-24T15:02:26.048Z,32.50
2019-02-24T15:05:00.308Z,32.93
2019-02-24T15:07:35.525Z,32.33
2019-02-24T15:10:11.067Z,32.70
2019-02-24T15:12:46.030Z,32.38
2019-02-24T15:15:21.174Z,34.48
2019-02-24T15:17:56.761Z,33.33
2019-02-24T15:20:31.179Z,34.38
2019-02-24T15:23:06.723Z,34.60
2019-02-24T15:25:41.041Z,33.83
2019-02-24T15:28:15.028Z,32.48
2019-02-24T15:30:49.064Z,33.30
2019-02-24T15:33:23.240Z,34.20
2019-02-24T15:35:57.440Z,34.70
2019-02-24T15:38:31.513Z,36.33
2019-02-24T15:41:05.813Z,36.08
2019-02-24T15:43:39.889Z,36.10
2019-02-24T15:46:14.272Z,34.63
2019-02-24T15:48:48.834Z,35.90
2019-02-24T15:51:23.333Z,37.35
2019-02-24T15:53:57.454Z,36.35
2019-02-24T15:56:31.742Z,39.50
2019-02-24T15:59:05.968Z,40.78
2019-02-24T16:01:40.375Z,37.83
2019-02-24T16:04:14.514Z,37.48
2019-02-24T16:06:49.622Z,38.63
2019-02-24T16:09:23.661Z,40.00
2019-02-24T16:11:58.004Z,39.98
2019-02-24T16:14:31.972Z,40.23
2019-02-24T16:17:10.413Z,40.80
2019-02-24T16:19:44.577Z,41.80
2019-02-24T16:22:18.892Z,41.30
2019-02-24T16:24:53.072Z,40.70
2019-02-24T16:27:27.222Z,40.85
2019-02-24T16:30:01.512Z,41.77
2019-02-24T16:32:35.455Z,39.05
2019-02-24T16:35:10.397Z,42.78
2019-02-24T16:37:45.579Z,41.83
2019-02-24T16:40:20.884Z,43.98
2019-02-24T16:42:55.201Z,43.85
2019-02-24T16:45:29.511Z,42.20
2019-02-24T16:48:03.936Z,42.65
2019-02-24T16:50:38.200Z,43.00
2019-02-24T16:53:14.093Z,44.27
2019-02-24T16:55:48.304Z,44.00
2019-02-24T16:58:22.311Z,43.55
2019-02-24T17:00:56.536Z,43.78
2019-02-24T17:03:30.936Z,46.48
2019-02-24T17:06:06.182Z,48.95
2019-02-24T17:08:40.213Z,48.38
2019-02-24T17:11:14.850Z,46.77
2019-02-24T17:13:49.090Z,46.28
2019-02-24T17:16:23.040Z,47.95
2019-02-24T17:18:57.266Z,46.10
2019-02-24T17:21:31.575Z,47.20
2019-02-24T17:24:05.892Z,46.13
2019-02-24T17:26:39.976Z,46.90
2019-02-24T17:29:14.095Z,48.02
2019-02-24T17:31:48.361Z,48.58
2019-02-24T17:34:22.482Z,49.40
2019-02-24T17:36:56.916Z,47.95
2019-02-24T17:39:31.019Z,49.35
2019-02-24T17:42:05.038Z,49.45
2019-02-24T17:44:39.215Z,49.13
2019-02-24T17:47:14.462Z,50.23
2019-02-24T17:49:48.503Z,50.78
2019-02-24T17:52:22.834Z,51.75
2019-02-24T17:54:57.088Z,52.58
2019-02-24T17:57:31.326Z,53.02
2019-02-24T18:00:05.450Z,52.50
2019-02-24T18:02:39.948Z,52.53
2019-02-24T18:05:14.033Z,52.67
2019-02-24T18:07:48.160Z,53.23
2019-02-24T18:10:22.369Z,53.65
2019-02-24T18:12:56.629Z,53.58
2019-02-24T18:15:30.668Z,55.00
2019-02-24T18:18:04.814Z,54.77
2019-02-24T18:20:39.034Z,53.68
2019-02-24T18:23:13.206Z,54.10
2019-02-24T18:25:47.440Z,54.63
2019-02-24T18:28:21.811Z,53.15
2019-02-24T18:30:56.276Z,55.17
2019-02-24T18:33:30.517Z,53.83
2019-02-24T18:36:04.713Z,55.80
2019-02-24T18:38:39.156Z,56.10
2019-02-24T18:41:13.425Z,55.25
2019-02-24T18:43:47.762Z,55.88
2019-02-24T18:46:22.026Z,54.77
2019-02-24T18:48:56.495Z,55.40
2019-02-24T18:51:30.838Z,56.55
2019-02-24T18:54:05.440Z,57.90
2019-02-24T18:56:39.621Z,56.42
2019-02-24T18:59:13.816Z,56.25
2019-02-24T19:01:47.925Z,56.65
2019-02-24T19:04:22.138Z,57.05
2019-02-24T19:06:58.145Z,59.00
2019-02-24T19:09:32.705Z,57.67
2019-02-24T19:12:06.947Z,57.27
2019-02-24T19:14:41.218Z,58.50
2019-02-24T19:17:15.573Z,58.48
2019-02-24T19:19:49.859Z,56.68
2019-02-24T19:22:24.124Z,58.52
2019-02-24T19:24:58.045Z,60.03
2019-02-24T19:27:32.085Z,60.03
2019-02-24T19:30:06.635Z,58.90
2019-02-24T19:32:41.337Z,59.83
2019-02-24T19:35:15.988Z,59.45
2019-02-24T19:37:50.074Z,61.35
2019-02-24T19:40:24.539Z,58.08
2019-02-24T19:42:58.814Z,59.53
2019-02-24T19:45:33.131Z,60.38
2019-02-24T19:48:07.123Z,59.50
2019-02-24T19:50:41.659Z,60.00
2019-02-24T19:53:15.899Z,60.08
2019-02-24T19:55:50.225Z,60.43
2019-02-24T19:58:24.546Z,62.35
2019-02-24T20:00:58.767Z,60.30
2019-02-24T20:03:32.912Z,62.27
2019-02-24T20:06:07.102Z,61.58
2019-02-24T20:08:41.211Z,61.83
2019-02-24T20:11:15.414Z,61.40
2019-02-24T20:13:49.679Z,61.88
2019-02-24T20:16:23.909Z,62.17
2019-02-24T20:18:58.002Z,61.53
2019-02-24T20:21:32.401Z,62.78
2019-02-24T20:24:06.676Z,63.05
2019-02-24T20:26:40.850Z,62.15
2019-02-24T20:29:15.248Z,60.83
2019-02-24T20:31:49.478Z,62.27
2019-02-24T20:34:25.848Z,63.70
2019-02-24T20:36:59.141Z,62.13
2019-02-24T20:39:33.215Z,62.70
2019-02-24T20:42:07.400Z,62.62
2019-02-24T20:44:41.652Z,65.45
2019-02-24T20:47:15.698Z,65.28
2019-02-24T20:49:49.876Z,64.62
2019-02-24T20:52:23.767Z,63.78
2019-02-24T20:54:57.948Z,64.45
2019-02-24T20:57:32.175Z,66.50
2019-02-24T21:00:06.507Z,63.30
2019-02-24T21:02:42.117Z,66.33
2019-02-24T21:05:16.471Z,64.40
2019-02-24T21:07:50.697Z,67.05
2019-02-24T21:10:24.883Z,66.57
2019-02-24T21:12:59.412Z,66.17
2019-02-24T21:15:33.779Z,65.47
2019-02-24T21:18:08.192Z,64.37
2019-02-24T21:20:42.382Z,66.65
2019-02-24T21:23:16.864Z,65.08
2019-02-24T21:25:50.958Z,66.33
2019-02-24T21:28:25.484Z,66.67
2019-02-24T21:30:59.521Z,66.05
2019-02-24T21:33:33.657Z,67.80
2019-02-24T21:36:07.871Z,65.80
2019-02-24T21:38:42.412Z,66.47
2019-02-24T21:41:16.359Z,67.22
2019-02-24T21:43:51.819Z,68.80
2019-02-24T21:46:25.983Z,68.92
2019-02-24T21:49:00.399Z,67.25
2019-02-24T21:51:34.701Z,68.22
2019-02-24T21:54:09.434Z,68.22
2019-02-24T21:56:43.621Z,67.90
2019-02-24T21:59:17.901Z,67.75
2019-02-24T22:01:51.975Z,69.90
2019-02-24T22:04:26.328Z,69.37
2019-02-24T22:07:00.604Z,67.53
2019-02-24T22:09:34.787Z,68.30
2019-02-24T22:12:08.824Z,69.22
2019-02-24T22:14:45.247Z,69.82
2019-02-24T22:17:19.535Z,71.53
2019-02-24T22:19:53.803Z,69.95
2019-02-24T22:22:28.149Z,67.78
2019-02-24T22:25:02.186Z,70.57
2019-02-24T22:27:36.486Z,70.78
2019-02-24T22:30:12.110Z,70.65
2019-02-24T22:32:46.308Z,70.80
2019-02-24T22:35:20.769Z,73.85
2019-02-24T22:37:54.869Z,71.35
2019-02-24T22:40:29.045Z,71.15
2019-02-24T22:43:03.286Z,73.55
2019-02-24T22:45:38.302Z,72.05
2019-02-24T22:48:12.482Z,71.85
2019-02-24T22:50:46.646Z,74.53
2019-02-24T22:53:20.768Z,75.80
2019-02-24T22:55:54.918Z,74.50
2019-02-24T22:58:29.226Z,73.78
2019-02-24T23:01:18.663Z,76.95
2019-02-24T23:03:54.712Z,75.75
2019-02-24T23:06:28.929Z,74.92
2019-02-24T23:09:03.051Z,76.62
2019-02-24T23:11:38.559Z,76.97
2019-02-24T23:14:12.626Z,78.20
2019-02-24T23:16:46.682Z,76.77
2019-02-24T23:19:20.673Z,78.83
2019-02-24T23:21:54.682Z,78.42
2019-02-24T23:24:28.945Z,77.05
2019-02-24T23:27:03.132Z,77.87
2019-02-24T23:29:37.268Z,77.47
2019-02-24T23:32:11.350Z,80.65
2019-02-24T23:34:45.755Z,78.87
2019-02-24T23:37:19.841Z,79.75
2019-02-24T23:39:53.975Z,79.87
2019-02-24T23:42:28.271Z,79.90
2019-02-24T23:45:10.002Z,82.00
2019-02-24T23:47:38.828Z,81.92
2019-02-24T23:50:13.341Z,79.95
2019-02-24T23:52:47.547Z,81.85
2019-02-24T23:55:21.833Z,82.17
2019-02-24T23:57:56.319Z,81.42
